Time;durP1;ratioP1;P1;durP2;ratioP2;P2;SDS_P1;SDS_P2;PMS_P1;PMS_P2;Temp;Humidity;BMP_temperature;BMP_pressure;BME280_temperature;BME280_humidity;BME280_pressure;Samples;Min_cycle;Max_cycle;Signal;HPM_P1;HPM_P2
2023/12/08 00:00:09;;;;;;;9.73;2.55;;;3.60;99.90;;;;;;4959116;28;20129;-74
2023/12/08 00:02:35;;;;;;;7.28;3.08;;;3.60;99.90;;;;;;4958600;28;20050;-75
2023/12/08 00:05:01;;;;;;;5.95;3.33;;;3.70;99.90;;;;;;4944018;29;20107;-74
2023/12/08 00:07:26;;;;;;;4.03;2.80;;;3.70;99.90;;;;;;4963294;28;20031;-75
2023/12/08 00:09:52;;;;;;;8.50;3.47;;;3.80;99.90;;;;;;4959995;28;20019;-75
2023/12/08 00:12:18;;;;;;;7.00;3.85;;;3.70;99.90;;;;;;4962954;28;20030;-75
2023/12/08 00:14:44;;;;;;;6.00;2.70;;;3.70;99.90;;;;;;4956726;28;20023;-75
2023/12/08 00:17:10;;;;;;;4.55;2.72;;;3.80;99.90;;;;;;4989572;28;20543;-74
2023/12/08 00:19:35;;;;;;;16.23;3.08;;;3.70;99.90;;;;;;4976563;28;20369;-75
2023/12/08 00:22:02;;;;;;;7.53;3.42;;;3.70;99.90;;;;;;4954244;29;20031;-72
2023/12/08 00:24:28;;;;;;;8.88;3.35;;;3.70;99.90;;;;;;4963047;28;20023;-73
2023/12/08 00:26:57;;;;;;;4.50;2.75;;;3.70;99.90;;;;;;4965572;28;20035;-73
2023/12/08 00:29:23;;;;;;;7.82;3.88;;;3.70;99.90;;;;;;4959259;28;20031;-73
2023/12/08 00:31:49;;;;;;;6.32;2.85;;;3.60;99.90;;;;;;4962646;28;20029;-73
2023/12/08 00:34:14;;;;;;;9.73;3.33;;;3.60;99.90;;;;;;4959521;28;20118;-73
2023/12/08 00:36:41;;;;;;;5.60;3.63;;;3.60;99.90;;;;;;4955269;28;20392;-73
2023/12/08 00:39:07;;;;;;;6.13;2.83;;;3.60;99.90;;;;;;4956101;28;20034;-73
2023/12/08 00:41:33;;;;;;;4.22;2.42;;;3.50;99.90;;;;;;4956267;28;20025;-73
2023/12/08 00:43:59;;;;;;;6.07;3.63;;;3.50;99.90;;;;;;4957104;28;20384;-73
2023/12/08 00:46:25;;;;;;;5.60;3.10;;;3.40;99.90;;;;;;4965219;28;20490;-74
2023/12/08 00:48:50;;;;;;;7.53;3.63;;;3.40;99.90;;;;;;4955250;28;20464;-73
2023/12/08 00:51:16;;;;;;;3.83;2.45;;;3.50;99.90;;;;;;4958181;28;20192;-74
2023/12/08 00:53:42;;;;;;;8.10;3.70;;;3.40;99.90;;;;;;4961706;28;20024;-74
2023/12/08 00:56:09;;;;;;;3.38;2.22;;;3.40;99.90;;;;;;4959240;28;20282;-74
2023/12/08 00:58:34;;;;;;;6.60;3.15;;;3.40;99.90;;;;;;4953934;28;20041;-74
2023/12/08 01:01:00;;;;;;;11.35;4.10;;;3.40;99.90;;;;;;4953960;28;20039;-74
2023/12/08 01:03:26;;;;;;;7.13;3.55;;;3.40;99.90;;;;;;4953187;28;20027;-74
2023/12/08 01:05:52;;;;;;;7.28;3.92;;;3.40;99.90;;;;;;4965713;28;20114;-74
2023/12/08 01:08:17;;;;;;;12.30;3.95;;;3.30;99.90;;;;;;4960632;28;20019;-74
2023/12/08 01:10:43;;;;;;;8.60;4.10;;;3.10;99.90;;;;;;4941720;29;20027;-74
2023/12/08 01:13:09;;;;;;;8.00;4.07;;;2.90;99.90;;;;;;4964016;28;20102;-74
2023/12/08 01:15:35;;;;;;;8.77;4.45;;;2.70;99.90;;;;;;4958425;28;20085;-74
2023/12/08 01:18:01;;;;;;;9.80;4.60;;;2.60;99.90;;;;;;4954382;28;20027;-74
2023/12/08 01:20:26;;;;;;;6.65;4.03;;;2.50;99.90;;;;;;4959977;28;20043;-75
2023/12/08 01:22:52;;;;;;;8.05;3.95;;;2.50;99.90;;;;;;4981413;28;20018;-74
2023/12/08 01:25:18;;;;;;;8.18;4.10;;;2.50;99.90;;;;;;4944542;28;20030;-74
2023/12/08 01:27:44;;;;;;;10.45;4.50;;;2.60;99.90;;;;;;4954192;28;20031;-74
2023/12/08 01:30:10;;;;;;;9.15;4.15;;;2.50;99.90;;;;;;4956714;28;20114;-74
2023/12/08 01:32:36;;;;;;;7.45;5.13;;;2.50;99.90;;;;;;4953123;28;20454;-74
2023/12/08 01:35:02;;;;;;;7.82;4.72;;;2.50;99.90;;;;;;4958388;28;20031;-74
2023/12/08 01:37:27;;;;;;;7.45;4.40;;;2.60;99.90;;;;;;4953129;28;20023;-74
2023/12/08 01:39:53;;;;;;;6.80;3.60;;;2.60;99.90;;;;;;4956785;28;20074;-74
2023/12/08 01:42:19;;;;;;;9.82;5.03;;;2.40;99.90;;;;;;4962382;28;20047;-74
2023/12/08 01:44:45;;;;;;;17.02;4.75;;;2.40;99.90;;;;;;4972934;28;20057;-74
2023/12/08 01:47:11;;;;;;;13.75;4.80;;;2.40;99.90;;;;;;4964414;28;20030;-73
2023/12/08 01:49:39;;;;;;;9.70;4.95;;;2.30;99.90;;;;;;4951739;28;20027;-73
2023/12/08 01:52:07;;;;;;;10.77;4.75;;;2.30;99.90;;;;;;4953965;28;20177;-74
2023/12/08 01:54:34;;;;;;;9.90;3.72;;;2.40;99.90;;;;;;4970226;28;20048;-74
2023/12/08 01:57:01;;;;;;;6.80;4.25;;;2.30;99.90;;;;;;4960888;28;20062;-73
2023/12/08 01:59:29;;;;;;;9.52;4.63;;;2.40;99.90;;;;;;4951090;28;20039;-73
2023/12/08 02:01:54;;;;;;;6.20;4.47;;;2.40;99.90;;;;;;4962141;28;20037;-73
2023/12/08 02:04:20;;;;;;;5.95;3.55;;;2.40;99.90;;;;;;4954774;28;20026;-73
2023/12/08 02:06:46;;;;;;;9.20;5.95;;;2.40;99.90;;;;;;4970962;28;20126;-73
2023/12/08 02:09:12;;;;;;;6.78;4.20;;;2.40;99.90;;;;;;4967900;28;20035;-74
2023/12/08 02:11:39;;;;;;;11.07;5.72;;;2.40;99.90;;;;;;4970451;28;20381;-74
2023/12/08 02:14:05;;;;;;;13.07;5.35;;;2.40;99.90;;;;;;4960038;28;20495;-74
2023/12/08 02:16:41;;;;;;;10.82;4.85;;;2.40;99.90;;;;;;4975054;28;20057;-74
2023/12/08 02:19:08;;;;;;;9.90;5.88;;;2.40;99.90;;;;;;4984644;28;20038;-73
2023/12/08 02:21:35;;;;;;;12.82;5.60;;;2.40;99.90;;;;;;4954140;28;20039;-73
2023/12/08 02:24:01;;;;;;;19.75;5.65;;;2.50;99.90;;;;;;4946145;28;20587;-73
2023/12/08 02:26:26;;;;;;;7.95;3.92;;;2.50;99.90;;;;;;4960015;28;20087;-73
2023/12/08 02:28:52;;;;;;;10.02;5.60;;;2.50;99.90;;;;;;4957981;28;20075;-74
2023/12/08 02:31:29;;;;;;;10.43;5.18;;;2.60;99.90;;;;;;4960152;28;20030;-74
2023/12/08 02:33:56;;;;;;;9.93;5.20;;;2.50;99.90;;;;;;4965878;28;20035;-73
2023/12/08 02:36:24;;;;;;;11.90;6.25;;;2.60;99.90;;;;;;4951922;28;20027;-74
2023/12/08 02:38:52;;;;;;;11.05;4.22;;;2.50;99.90;;;;;;4950696;28;20027;-74
2023/12/08 02:41:18;;;;;;;8.68;5.35;;;2.50;99.90;;;;;;4942967;28;20078;-74
2023/12/08 02:43:44;;;;;;;9.52;5.00;;;2.50;99.90;;;;;;4971836;28;20077;-74
2023/12/08 02:46:10;;;;;;;9.93;5.75;;;2.60;99.90;;;;;;4965407;28;20031;-75
2023/12/08 02:48:36;;;;;;;13.27;6.72;;;2.60;99.90;;;;;;4967545;28;20039;-75
2023/12/08 02:51:04;;;;;;;14.50;5.63;;;2.60;99.90;;;;;;4967242;28;20035;-75
2023/12/08 02:53:29;;;;;;;10.38;5.15;;;2.50;99.90;;;;;;4962800;28;20082;-75
2023/12/08 02:55:55;;;;;;;18.02;7.38;;;2.60;99.90;;;;;;4943586;28;20087;-74
2023/12/08 02:58:21;;;;;;;9.10;5.13;;;2.60;99.90;;;;;;4968907;28;20037;-74
2023/12/08 03:00:46;;;;;;;10.48;5.10;;;2.60;99.90;;;;;;4972444;28;20038;-74
2023/12/08 03:03:12;;;;;;;14.50;6.30;;;2.60;99.90;;;;;;4971589;28;20027;-74
2023/12/08 03:05:38;;;;;;;11.50;5.85;;;2.60;99.90;;;;;;4970616;28;20032;-74
2023/12/08 03:08:04;;;;;;;11.63;5.30;;;2.50;99.90;;;;;;4954742;28;20031;-74
2023/12/08 03:10:30;;;;;;;8.70;4.43;;;2.50;99.90;;;;;;4966690;28;20035;-74
2023/12/08 03:12:55;;;;;;;9.30;5.97;;;2.50;99.90;;;;;;4964348;28;20027;-74
2023/12/08 03:15:23;;;;;;;7.25;4.57;;;2.40;99.90;;;;;;4952772;28;20118;-74
2023/12/08 03:17:48;;;;;;;10.23;5.07;;;2.40;99.90;;;;;;4951202;28;20023;-74
2023/12/08 03:20:14;;;;;;;8.05;3.90;;;2.40;99.90;;;;;;4984435;28;20110;-74
2023/12/08 03:22:40;;;;;;;8.63;5.05;;;2.40;99.90;;;;;;4974659;28;20109;-74
2023/12/08 03:25:06;;;;;;;16.42;5.95;;;2.40;99.90;;;;;;4955819;28;20019;-74
2023/12/08 03:27:32;;;;;;;11.77;5.63;;;2.50;99.90;;;;;;4970552;28;20381;-74
2023/12/08 03:29:57;;;;;;;10.20;5.50;;;2.60;99.90;;;;;;4960008;28;20033;-74
2023/12/08 03:32:23;;;;;;;7.78;4.30;;;2.40;99.90;;;;;;4955346;28;20476;-75
2023/12/08 03:34:49;;;;;;;7.60;4.55;;;2.30;99.90;;;;;;4971357;28;20475;-75
2023/12/08 03:37:14;;;;;;;11.88;4.43;;;2.40;99.90;;;;;;4975373;28;20039;-74
2023/12/08 03:39:43;;;;;;;10.77;5.18;;;2.40;99.90;;;;;;4957946;28;20086;-74
2023/12/08 03:42:09;;;;;;;13.50;5.78;;;2.40;99.90;;;;;;4964307;28;20019;-74
2023/12/08 03:44:35;;;;;;;8.32;4.40;;;2.30;99.90;;;;;;4965247;28;20042;-74
2023/12/08 03:47:00;;;;;;;11.85;6.05;;;2.40;99.90;;;;;;4964965;28;20031;-74
2023/12/08 03:49:26;;;;;;;12.95;5.80;;;2.50;99.90;;;;;;4963573;28;20076;-74
2023/12/08 03:51:52;;;;;;;12.77;5.10;;;2.50;99.90;;;;;;4958173;28;20026;-77
2023/12/08 03:54:17;;;;;;;13.32;5.60;;;2.50;99.90;;;;;;4970621;28;20022;-76
2023/12/08 03:56:43;;;;;;;9.93;4.93;;;2.50;99.90;;;;;;4965840;28;20030;-74
2023/12/08 03:59:09;;;;;;;11.32;6.35;;;2.50;99.90;;;;;;4973799;28;20485;-75
2023/12/08 04:01:35;;;;;;;10.23;4.60;;;2.50;99.90;;;;;;4975303;28;20085;-74
2023/12/08 04:04:01;;;;;;;10.93;5.97;;;2.40;99.90;;;;;;4967621;28;20035;-74
2023/12/08 04:06:26;;;;;;;8.82;4.93;;;2.40;99.90;;;;;;4965106;28;20031;-75
2023/12/08 04:08:52;;;;;;;10.02;5.78;;;2.50;99.90;;;;;;4963670;28;20038;-74
2023/12/08 04:11:18;;;;;;;13.25;5.93;;;2.40;99.90;;;;;;4972071;28;20025;-75
2023/12/08 04:13:43;;;;;;;16.50;6.63;;;2.40;99.90;;;;;;4974419;28;20042;-74
2023/12/08 04:16:10;;;;;;;14.65;5.20;;;2.50;99.90;;;;;;4977009;28;20114;-75
2023/12/08 04:18:35;;;;;;;12.57;6.18;;;2.50;99.90;;;;;;4953031;28;20038;-75
2023/12/08 04:21:01;;;;;;;11.88;4.85;;;2.50;99.90;;;;;;4968690;28;20035;-74
2023/12/08 04:23:27;;;;;;;13.32;6.03;;;2.50;99.90;;;;;;4973133;28;20041;-75
2023/12/08 04:25:53;;;;;;;13.95;5.80;;;2.30;99.90;;;;;;4954054;28;20023;-74
2023/12/08 04:28:18;;;;;;;10.85;4.57;;;2.30;99.90;;;;;;4966024;28;20031;-74
2023/12/08 04:30:44;;;;;;;12.32;5.53;;;2.20;99.90;;;;;;4973606;28;20037;-74
2023/12/08 04:33:11;;;;;;;13.00;6.40;;;2.30;99.90;;;;;;4966142;28;22214;-74
2023/12/08 04:35:36;;;;;;;12.52;5.93;;;2.30;99.90;;;;;;4966590;28;20041;-74
2023/12/08 04:38:02;;;;;;;14.75;5.63;;;2.20;99.90;;;;;;4960845;28;20141;-74
2023/12/08 04:40:28;;;;;;;23.17;5.20;;;2.20;99.90;;;;;;4964541;28;20063;-74
2023/12/08 04:42:53;;;;;;;12.27;5.00;;;2.20;99.90;;;;;;4974663;28;20042;-74
2023/12/08 04:45:19;;;;;;;10.85;5.88;;;2.10;99.90;;;;;;4982493;28;20392;-75
2023/12/08 04:47:45;;;;;;;8.55;5.63;;;2.10;99.90;;;;;;4972844;28;20363;-75
2023/12/08 04:50:11;;;;;;;9.98;5.45;;;2.10;99.90;;;;;;4980469;28;20117;-74
2023/12/08 04:52:36;;;;;;;9.60;5.55;;;2.10;99.90;;;;;;4974244;28;20042;-74
2023/12/08 04:55:04;;;;;;;13.23;4.70;;;2.20;99.90;;;;;;4973599;28;20066;-76
2023/12/08 04:57:31;;;;;;;11.63;5.68;;;2.20;99.90;;;;;;4956330;28;20118;-74
2023/12/08 04:59:56;;;;;;;13.93;5.55;;;2.20;99.90;;;;;;4972576;28;20122;-74
2023/12/08 05:02:22;;;;;;;10.52;4.82;;;2.20;99.90;;;;;;4956183;28;20081;-74
2023/12/08 05:04:48;;;;;;;12.40;6.13;;;2.20;99.90;;;;;;4960437;28;20049;-74
2023/12/08 05:07:13;;;;;;;16.05;7.18;;;2.20;99.90;;;;;;4966903;28;20024;-77
2023/12/08 05:09:39;;;;;;;19.63;6.78;;;2.30;99.90;;;;;;4971838;28;20503;-75
2023/12/08 05:12:05;;;;;;;19.15;7.65;;;2.30;99.90;;;;;;4974799;28;20088;-74
2023/12/08 05:14:31;;;;;;;8.48;4.63;;;2.30;99.90;;;;;;4973263;28;20085;-75
2023/12/08 05:16:57;;;;;;;13.48;6.38;;;2.30;99.90;;;;;;4985336;28;20077;-75
2023/12/08 05:19:23;;;;;;;12.52;5.32;;;2.30;99.90;;;;;;4963494;28;20443;-74
2023/12/08 05:21:48;;;;;;;12.55;6.35;;;2.30;99.90;;;;;;4965194;28;20027;-74
2023/12/08 05:24:14;;;;;;;10.45;6.15;;;2.40;99.90;;;;;;4969305;28;20158;-74
2023/12/08 05:26:40;;;;;;;9.80;6.10;;;2.40;99.90;;;;;;4962602;28;20446;-75
2023/12/08 05:29:06;;;;;;;14.18;6.18;;;2.50;99.90;;;;;;4960848;28;20027;-74
2023/12/08 05:31:31;;;;;;;13.82;6.93;;;2.50;99.90;;;;;;4962253;28;20368;-74
2023/12/08 05:33:57;;;;;;;15.13;6.05;;;2.50;99.90;;;;;;4969263;28;20038;-74
2023/12/08 05:36:23;;;;;;;10.30;5.32;;;2.50;99.90;;;;;;4972861;28;20019;-73
2023/12/08 05:38:49;;;;;;;13.85;4.85;;;2.50;99.90;;;;;;4968154;28;20046;-74
2023/12/08 05:41:15;;;;;;;11.13;5.75;;;2.50;99.90;;;;;;4962038;28;20031;-74
2023/12/08 05:43:41;;;;;;;10.23;5.43;;;2.40;99.90;;;;;;4974428;28;20591;-76
2023/12/08 05:46:06;;;;;;;12.90;4.47;;;2.50;99.90;;;;;;4961848;28;20086;-75
2023/12/08 05:48:32;;;;;;;9.90;5.35;;;2.50;99.90;;;;;;4964628;28;20035;-73
2023/12/08 05:50:58;;;;;;;7.45;4.47;;;2.40;99.90;;;;;;4970582;28;20041;-73
2023/12/08 05:53:24;;;;;;;8.63;4.88;;;2.40;99.90;;;;;;4966483;28;20376;-72
2023/12/08 05:55:49;;;;;;;11.25;6.25;;;2.30;99.90;;;;;;4968896;28;20064;-75
2023/12/08 05:58:15;;;;;;;8.45;3.78;;;2.20;99.90;;;;;;4971844;28;20031;-73
2023/12/08 06:00:41;;;;;;;9.15;4.97;;;2.20;99.90;;;;;;4974363;28;20049;-72
2023/12/08 06:03:07;;;;;;;9.00;4.97;;;2.20;99.90;;;;;;4974152;28;20033;-76
2023/12/08 06:05:36;;;;;;;19.23;10.35;;;2.20;99.90;;;;;;4958343;28;20333;-75
2023/12/08 06:08:02;;;;;;;19.40;7.60;;;2.10;99.90;;;;;;4948501;28;20778;-73
2023/12/08 06:10:27;;;;;;;18.75;5.80;;;1.90;99.90;;;;;;4965920;28;20035;-74
2023/12/08 06:12:53;;;;;;;9.32;5.00;;;1.80;99.90;;;;;;4964826;28;20066;-75
2023/12/08 06:15:19;;;;;;;10.50;5.13;;;1.80;99.90;;;;;;4974538;28;20430;-74
2023/12/08 06:17:45;;;;;;;8.88;6.20;;;1.70;99.90;;;;;;4969201;28;20054;-75
2023/12/08 06:20:11;;;;;;;14.32;5.25;;;1.60;99.90;;;;;;4964633;28;20058;-74
2023/12/08 06:22:37;;;;;;;9.68;6.47;;;1.60;99.90;;;;;;4971772;28;20026;-75
2023/12/08 06:25:03;;;;;;;32.42;5.93;;;1.50;99.90;;;;;;4956856;28;20023;-74
2023/12/08 06:27:29;;;;;;;7.47;5.32;;;1.50;99.90;;;;;;4947307;28;20205;-74
2023/12/08 06:29:55;;;;;;;9.30;5.15;;;1.60;99.90;;;;;;4989851;28;20546;-74
2023/12/08 06:32:20;;;;;;;11.98;4.43;;;1.50;99.90;;;;;;4990621;28;20109;-72
2023/12/08 06:34:46;;;;;;;6.82;4.95;;;1.50;99.90;;;;;;4987904;28;20041;-73
2023/12/08 06:37:13;;;;;;;17.50;6.95;;;1.50;99.90;;;;;;4991223;28;20034;-74
2023/12/08 06:39:42;;;;;;;12.25;6.35;;;1.40;99.90;;;;;;4977308;28;20031;-73
2023/12/08 06:42:07;;;;;;;9.52;5.57;;;1.40;99.90;;;;;;4987543;28;20549;-74
2023/12/08 06:44:33;;;;;;;17.75;6.60;;;1.40;99.90;;;;;;4969166;28;20027;-75
2023/12/08 06:46:59;;;;;;;14.25;5.75;;;1.50;99.90;;;;;;4990636;28;20037;-75
2023/12/08 06:49:25;;;;;;;11.80;6.32;;;1.50;99.90;;;;;;4989525;28;20407;-75
2023/12/08 06:51:51;;;;;;;14.60;5.95;;;1.60;99.90;;;;;;4991681;28;20483;-75
2023/12/08 06:54:16;;;;;;;12.98;5.72;;;1.60;99.90;;;;;;4992016;28;20030;-72
2023/12/08 06:56:42;;;;;;;11.98;4.97;;;1.60;99.90;;;;;;4977632;28;20470;-73
2023/12/08 06:59:09;;;;;;;12.32;5.95;;;1.70;99.90;;;;;;4985028;28;20359;-73
2023/12/08 07:01:35;;;;;;;15.43;6.95;;;1.70;99.90;;;;;;4991564;28;20126;-72
2023/12/08 07:04:03;;;;;;;12.77;5.30;;;1.70;99.90;;;;;;4969672;28;20089;-73
2023/12/08 07:06:30;;;;;;;18.90;7.45;;;1.70;99.90;;;;;;4973855;28;20023;-73
2023/12/08 07:08:56;;;;;;;9.93;5.00;;;1.80;99.90;;;;;;4994849;28;20114;-71
2023/12/08 07:11:22;;;;;;;9.43;6.07;;;1.80;99.90;;;;;;4990782;28;20101;-74
2023/12/08 07:13:49;;;;;;;10.45;6.28;;;1.80;99.90;;;;;;5006557;28;20018;-72
2023/12/08 07:16:15;;;;;;;9.45;5.05;;;1.80;99.90;;;;;;4991403;28;20022;-71
2023/12/08 07:18:41;;;;;;;8.85;4.43;;;1.90;99.90;;;;;;4983157;28;20031;-71
2023/12/08 07:21:07;;;;;;;7.57;5.32;;;2.00;99.90;;;;;;4995260;28;20038;-70
2023/12/08 07:23:33;;;;;;;15.25;6.60;;;2.00;99.90;;;;;;4983048;28;20046;-72
2023/12/08 07:26:00;;;;;;;7.55;3.95;;;2.10;99.90;;;;;;4995394;28;20018;-74
2023/12/08 07:28:26;;;;;;;6.78;4.43;;;2.10;99.90;;;;;;4994104;28;20037;-72
2023/12/08 07:30:52;;;;;;;14.20;7.13;;;2.10;99.90;;;;;;4994510;28;20026;-70
2023/12/08 07:33:18;;;;;;;9.82;5.40;;;2.10;99.90;;;;;;4994643;28;20080;-70
2023/12/08 07:35:43;;;;;;;10.30;5.40;;;2.20;99.90;;;;;;4994930;28;20030;-73
2023/12/08 07:38:09;;;;;;;10.02;4.43;;;2.20;99.90;;;;;;4994705;28;20080;-72
2023/12/08 07:40:35;;;;;;;11.82;5.05;;;2.20;99.90;;;;;;4976284;28;20483;-73
2023/12/08 07:43:01;;;;;;;12.15;5.53;;;2.30;99.90;;;;;;4996199;28;20022;-73
2023/12/08 07:45:26;;;;;;;8.93;3.83;;;2.30;99.90;;;;;;4994816;28;20113;-72
2023/12/08 07:47:53;;;;;;;7.57;5.72;;;2.40;99.90;;;;;;4994171;28;20495;-72
2023/12/08 07:50:18;;;;;;;8.10;4.43;;;2.40;99.90;;;;;;4994169;28;20034;-71
2023/12/08 07:52:44;;;;;;;8.75;4.95;;;2.50;99.90;;;;;;4993591;28;20037;-71
2023/12/08 07:55:10;;;;;;;8.95;4.85;;;2.40;99.90;;;;;;4994035;28;20049;-72
2023/12/08 07:57:36;;;;;;;9.93;5.43;;;2.60;99.90;;;;;;4994186;28;20116;-73
2023/12/08 08:00:06;;;;;;;6.63;4.15;;;2.50;99.90;;;;;;4984197;28;20439;-71
2023/12/08 08:02:33;;;;;;;8.00;4.10;;;2.60;99.90;;;;;;4992171;28;20053;-73
2023/12/08 08:04:58;;;;;;;10.68;5.07;;;2.60;99.90;;;;;;4979566;28;20022;-73
2023/12/08 08:07:24;;;;;;;16.63;5.43;;;2.60;99.90;;;;;;4990804;28;20088;-72
2023/12/08 08:09:51;;;;;;;16.85;6.47;;;2.60;99.90;;;;;;4993733;28;20512;-68
2023/12/08 08:12:17;;;;;;;11.77;4.93;;;2.60;99.90;;;;;;4996633;28;20608;-69
2023/12/08 08:14:43;;;;;;;9.20;5.65;;;2.70;99.90;;;;;;4993810;28;20395;-73
2023/12/08 08:17:08;;;;;;;8.18;5.32;;;2.70;99.90;;;;;;4993655;28;20069;-73
2023/12/08 08:19:34;;;;;;;13.60;4.80;;;2.80;99.90;;;;;;4976277;28;20031;-71
2023/12/08 08:22:00;;;;;;;10.82;5.68;;;2.70;99.90;;;;;;4994145;28;20117;-73
2023/12/08 08:24:27;;;;;;;10.57;5.47;;;2.70;99.90;;;;;;4993156;28;20015;-73
2023/12/08 08:26:53;;;;;;;10.23;5.38;;;2.70;99.90;;;;;;4990498;28;20027;-73
2023/12/08 08:29:18;;;;;;;13.10;5.97;;;2.70;99.90;;;;;;4992374;28;20030;-71
2023/12/08 08:31:44;;;;;;;11.68;5.00;;;2.80;99.90;;;;;;4993995;28;20027;-71
2023/12/08 08:34:10;;;;;;;12.95;5.35;;;2.80;99.90;;;;;;4981749;28;20352;-75
2023/12/08 08:36:36;;;;;;;11.30;5.10;;;2.80;99.90;;;;;;4994279;28;20034;-76
2023/12/08 08:39:03;;;;;;;8.77;5.03;;;2.80;99.90;;;;;;4977814;28;20034;-73
2023/12/08 08:41:29;;;;;;;17.00;8.07;;;2.90;99.90;;;;;;4993269;28;20045;-73
2023/12/08 08:43:55;;;;;;;12.35;6.72;;;2.90;99.90;;;;;;4980117;28;20058;-75
2023/12/08 08:46:21;;;;;;;7.35;6.32;;;2.90;99.90;;;;;;4988965;28;20057;-73
2023/12/08 08:48:46;;;;;;;14.00;4.90;;;2.90;99.90;;;;;;4989296;28;20034;-71
2023/12/08 08:51:14;;;;;;;11.77;5.55;;;3.00;99.90;;;;;;4956857;28;20050;-74
2023/12/08 08:53:40;;;;;;;7.90;4.53;;;3.00;99.90;;;;;;4957347;28;20511;-76
2023/12/08 08:56:06;;;;;;;11.35;4.95;;;3.00;99.90;;;;;;4963369;28;20061;-73
2023/12/08 08:58:34;;;;;;;8.95;4.80;;;3.10;99.90;;;;;;4944150;28;20071;-72
2023/12/08 09:01:00;;;;;;;7.32;4.60;;;3.10;99.90;;;;;;4966213;28;20558;-72
2023/12/08 09:03:26;;;;;;;8.55;4.72;;;3.20;99.90;;;;;;4952355;28;20030;-72
2023/12/08 09:05:52;;;;;;;6.85;4.78;;;3.20;99.90;;;;;;4948022;28;20075;-73
2023/12/08 09:08:17;;;;;;;12.05;6.82;;;3.30;99.90;;;;;;4944422;28;20545;-72
2023/12/08 09:10:45;;;;;;;7.35;5.45;;;3.20;99.90;;;;;;4961263;28;20189;-71
2023/12/08 09:13:12;;;;;;;6.15;4.78;;;3.40;99.90;;;;;;4948279;28;20527;-72
2023/12/08 09:15:38;;;;;;;12.90;5.75;;;3.40;99.90;;;;;;4970175;28;20039;-72
2023/12/08 09:18:06;;;;;;;13.07;6.22;;;3.40;99.90;;;;;;4936047;29;20112;-73
2023/12/08 09:20:32;;;;;;;9.48;4.82;;;3.40;99.90;;;;;;4937198;28;20036;-75
2023/12/08 09:22:57;;;;;;;10.50;4.50;;;3.40;99.90;;;;;;4977914;28;20049;-74
2023/12/08 09:25:24;;;;;;;9.93;5.22;;;3.40;99.90;;;;;;4992702;28;20096;-73
2023/12/08 09:27:50;;;;;;;8.38;5.38;;;3.40;99.90;;;;;;4994671;28;20026;-72
2023/12/08 09:30:15;;;;;;;8.30;4.85;;;3.40;99.90;;;;;;4994930;28;20356;-70
2023/12/08 09:32:41;;;;;;;9.50;4.43;;;3.50;99.90;;;;;;4993500;28;20558;-73
2023/12/08 09:35:07;;;;;;;16.63;6.32;;;3.50;99.90;;;;;;4978263;28;20376;-73
2023/12/08 09:37:33;;;;;;;11.02;5.00;;;3.50;99.90;;;;;;4989408;28;20113;-73
2023/12/08 09:39:58;;;;;;;17.10;7.63;;;3.60;99.90;;;;;;4991363;28;20026;-74
2023/12/08 09:42:45;;;;;;;17.48;5.93;;;3.60;99.90;;;;;;4983191;28;20383;-74
2023/12/08 09:45:11;;;;;;;18.90;4.78;;;3.60;99.90;;;;;;4992480;28;20542;-74
2023/12/08 09:47:39;;;;;;;9.48;4.70;;;3.60;99.90;;;;;;4991170;28;20134;-74
2023/12/08 09:50:09;;;;;;;10.10;6.20;;;3.70;99.90;;;;;;5002234;28;20073;-74
2023/12/08 09:52:35;;;;;;;10.30;4.88;;;3.70;99.90;;;;;;4988400;28;20157;-74
2023/12/08 09:55:03;;;;;;;11.32;4.97;;;3.70;99.90;;;;;;4977386;28;20034;-74
2023/12/08 09:57:30;;;;;;;10.77;5.45;;;3.70;99.90;;;;;;4988555;28;20457;-74
2023/12/08 09:59:59;;;;;;;17.10;6.22;;;3.70;99.90;;;;;;4988306;28;20483;-73
2023/12/08 10:02:26;;;;;;;11.48;4.90;;;3.70;99.90;;;;;;4975017;28;20026;-74
2023/12/08 10:04:52;;;;;;;21.13;7.32;;;3.70;99.90;;;;;;4974527;28;20058;-74
2023/12/08 10:07:20;;;;;;;10.90;5.82;;;3.70;99.90;;;;;;4988443;28;20542;-72
2023/12/08 10:09:46;;;;;;;12.75;5.38;;;3.70;99.90;;;;;;4983023;28;20030;-74
2023/12/08 10:12:12;;;;;;;18.10;5.43;;;3.70;99.90;;;;;;4993440;28;20049;-74
2023/12/08 10:14:58;;;;;;;10.50;5.85;;;3.80;99.90;;;;;;4991526;28;20066;-72
2023/12/08 10:17:25;;;;;;;13.88;6.07;;;3.80;99.90;;;;;;4974690;28;20039;-72
2023/12/08 10:19:53;;;;;;;17.52;8.13;;;3.90;99.90;;;;;;4968324;28;20041;-73
2023/12/08 10:22:19;;;;;;;9.85;4.80;;;3.90;99.90;;;;;;4971291;28;20479;-73
2023/12/08 10:24:46;;;;;;;13.00;6.53;;;3.80;99.90;;;;;;4989816;28;20521;-73
2023/12/08 10:27:11;;;;;;;11.80;6.32;;;3.80;99.90;;;;;;4976557;28;20478;-76
2023/12/08 10:29:38;;;;;;;10.85;5.90;;;3.90;99.90;;;;;;4987789;28;20078;-75
2023/12/08 10:32:04;;;;;;;6.60;3.28;;;3.80;99.90;;;;;;4961456;28;20388;-75
2023/12/08 10:34:31;;;;;;;15.57;5.07;;;3.80;99.90;;;;;;4990614;28;20042;-73
2023/12/08 10:36:57;;;;;;;11.90;6.43;;;3.80;99.90;;;;;;4990865;28;20026;-73
2023/12/08 10:39:25;;;;;;;9.23;5.10;;;3.80;99.90;;;;;;4994799;28;20149;-73
2023/12/08 10:41:52;;;;;;;10.88;5.93;;;3.70;99.90;;;;;;4994056;28;20018;-77
2023/12/08 10:44:21;;;;;;;14.05;5.82;;;3.80;99.90;;;;;;5006714;28;20026;-76
2023/12/08 10:46:51;;;;;;;13.13;6.75;;;3.80;99.90;;;;;;4984062;28;20045;-76
2023/12/08 10:49:21;;;;;;;10.27;6.72;;;3.80;99.90;;;;;;4975789;28;20030;-77
2023/12/08 10:51:49;;;;;;;10.48;6.97;;;3.80;99.90;;;;;;4992662;28;20450;-78
2023/12/08 10:54:17;;;;;;;17.42;8.60;;;3.80;99.90;;;;;;4992264;28;20387;-73
2023/12/08 10:56:46;;;;;;;10.63;5.05;;;3.80;99.90;;;;;;4999128;28;20053;-73
2023/12/08 10:59:21;;;;;;;9.07;5.22;;;3.90;99.90;;;;;;4977294;28;20388;-73
2023/12/08 11:01:48;;;;;;;14.15;6.53;;;4.00;99.90;;;;;;4990272;28;20048;-73
2023/12/08 11:04:21;;;;;;;13.48;6.65;;;4.00;99.90;;;;;;4962160;28;20395;-74
2023/12/08 11:06:58;;;;;;;11.77;6.50;;;4.00;99.90;;;;;;4990630;28;20034;-71
2023/12/08 11:09:27;;;;;;;13.70;7.88;;;4.00;99.90;;;;;;4991643;28;20034;-73
2023/12/08 11:11:55;;;;;;;10.45;5.43;;;4.10;99.90;;;;;;4988764;28;20506;-72
2023/12/08 11:14:47;;;;;;;11.25;5.78;;;4.20;99.90;;;;;;4974315;28;20038;-73
2023/12/08 11:17:35;;;;;;;11.18;6.05;;;4.20;99.90;;;;;;4990211;28;20109;-74
2023/12/08 11:20:01;;;;;;;14.60;7.10;;;4.10;99.90;;;;;;4976213;28;20038;-74
2023/12/08 11:22:27;;;;;;;9.23;5.47;;;4.10;99.90;;;;;;4987225;28;20029;-66
2023/12/08 11:24:56;;;;;;;15.27;6.65;;;4.30;99.90;;;;;;4990177;28;20018;-66
2023/12/08 11:27:42;;;;;;;10.98;6.40;;;4.40;99.90;;;;;;4989713;28;20030;-71
2023/12/08 11:30:33;;;;;;;7.97;5.13;;;4.30;99.90;;;;;;4985814;28;20085;-72
2023/12/08 11:33:26;;;;;;;13.35;6.78;;;4.30;99.90;;;;;;4981305;28;20038;-72
2023/12/08 11:35:52;;;;;;;10.93;7.18;;;4.40;99.90;;;;;;4988487;28;20617;-72
2023/12/08 11:38:30;;;;;;;14.18;6.53;;;4.30;99.90;;;;;;4988504;28;20041;-72
2023/12/08 11:40:56;;;;;;;12.77;6.57;;;4.30;99.90;;;;;;4991614;28;20134;-72
2023/12/08 11:43:23;;;;;;;12.18;5.60;;;4.30;99.90;;;;;;4993473;28;20023;-72
2023/12/08 11:45:50;;;;;;;12.57;5.60;;;4.30;99.90;;;;;;4991986;28;20022;-72
2023/12/08 11:48:15;;;;;;;14.77;7.32;;;4.30;99.90;;;;;;4990866;28;20093;-72
2023/12/08 11:50:41;;;;;;;12.65;5.85;;;4.30;99.90;;;;;;4975668;28;20026;-72
2023/12/08 11:53:07;;;;;;;19.70;7.20;;;4.40;99.90;;;;;;4991527;28;20038;-72
2023/12/08 11:55:33;;;;;;;23.48;7.68;;;4.40;99.90;;;;;;4993022;28;20121;-72
2023/12/08 11:57:58;;;;;;;15.07;7.00;;;4.40;99.90;;;;;;4980164;28;20384;-72
2023/12/08 12:00:27;;;;;;;14.60;6.18;;;4.40;99.90;;;;;;4980383;28;20038;-73
2023/12/08 12:02:54;;;;;;;14.95;6.82;;;4.40;99.90;;;;;;4982601;28;20050;-73
2023/12/08 12:05:21;;;;;;;9.68;5.18;;;4.50;99.90;;;;;;4990496;28;20153;-73
2023/12/08 12:07:52;;;;;;;16.23;6.78;;;4.50;99.90;;;;;;4991246;28;20041;-73
2023/12/08 12:10:23;;;;;;;12.18;6.40;;;4.50;99.90;;;;;;4989142;28;20033;-72
2023/12/08 12:13:05;;;;;;;16.33;7.93;;;4.40;99.90;;;;;;4992234;28;20046;-73
2023/12/08 12:15:33;;;;;;;;;;;4.50;99.90;;;;;;4990211;28;20056;-73
2023/12/08 12:18:02;;;;;;;10.52;5.78;;;4.50;99.90;;;;;;4978666;28;19910;-73
2023/12/08 12:20:30;;;;;;;13.68;6.88;;;4.50;99.90;;;;;;4987944;28;20111;-73
2023/12/08 12:22:56;;;;;;;16.63;6.93;;;4.50;99.90;;;;;;5006972;28;20030;-73
2023/12/08 12:25:22;;;;;;;11.93;6.43;;;4.50;99.90;;;;;;4992083;28;20042;-73
2023/12/08 12:27:48;;;;;;;10.60;5.25;;;4.60;99.90;;;;;;4991002;28;20049;-73
2023/12/08 12:30:18;;;;;;;10.00;5.53;;;4.60;99.90;;;;;;4987824;28;20030;-73
2023/12/08 12:32:47;;;;;;;12.20;6.18;;;4.70;99.90;;;;;;4992239;28;20053;-73
2023/12/08 12:35:13;;;;;;;17.08;7.20;;;4.60;99.90;;;;;;4992524;28;20045;-73
2023/12/08 12:37:40;;;;;;;14.60;6.13;;;4.60;99.90;;;;;;4990102;28;20061;-73
2023/12/08 12:40:08;;;;;;;12.98;5.72;;;4.60;99.90;;;;;;4989027;28;20106;-73
2023/12/08 12:42:46;;;;;;;8.15;6.07;;;4.60;99.90;;;;;;4991464;28;20085;-73
2023/12/08 12:45:27;;;;;;;10.40;5.78;;;4.60;99.90;;;;;;4991643;28;20046;-73
2023/12/08 12:48:09;;;;;;;12.40;6.85;;;4.50;99.90;;;;;;4991498;28;20553;-73